sensor_id;sensor_type;location;lat;lon;timestamp;pressure;altitude;pressure_sealevel;temperature;humidity
47280;BME280;34064;44.942;0.008;2023-03-21T00:02:17;99083.06;;;12.06;51.09
47280;BME280;34064;44.942;0.008;2023-03-21T00:04:44;99080.03;;;11.99;51.16
47280;BME280;34064;44.942;0.008;2023-03-21T00:07:12;99079.28;;;11.97;51.50
47280;BME280;34064;44.942;0.008;2023-03-21T00:09:39;99075.16;;;11.93;51.62
47280;BME280;34064;44.942;0.008;2023-03-21T00:12:07;99076.25;;;11.90;51.64
47280;BME280;34064;44.942;0.008;2023-03-21T00:14:36;99080.47;;;11.81;51.89
47280;BME280;34064;44.942;0.008;2023-03-21T00:17:04;99081.41;;;11.69;52.22
47280;BME280;34064;44.942;0.008;2023-03-21T00:19:31;99087.81;;;11.66;52.08
47280;BME280;34064;44.942;0.008;2023-03-21T00:22:05;99076.78;;;11.60;51.77
47280;BME280;34064;44.942;0.008;2023-03-21T00:24:36;99087.19;;;11.51;52.02
47280;BME280;34064;44.942;0.008;2023-03-21T00:27:03;99075.09;;;11.47;51.92
47280;BME280;34064;44.942;0.008;2023-03-21T00:29:31;99081.72;;;11.42;52.31
47280;BME280;34064;44.942;0.008;2023-03-21T00:31:58;99084.13;;;11.33;52.33
47280;BME280;34064;44.942;0.008;2023-03-21T00:34:26;99087.56;;;11.22;52.86
47280;BME280;34064;44.942;0.008;2023-03-21T00:36:53;99084.81;;;11.24;52.11
47280;BME280;34064;44.942;0.008;2023-03-21T00:39:20;99083.94;;;11.23;52.07
47280;BME280;34064;44.942;0.008;2023-03-21T00:41:50;99076.84;;;11.24;51.98
47280;BME280;34064;44.942;0.008;2023-03-21T00:44:18;99083.72;;;11.27;51.94
47280;BME280;34064;44.942;0.008;2023-03-21T00:46:45;99074.78;;;11.28;51.99
47280;BME280;34064;44.942;0.008;2023-03-21T00:49:12;99083.72;;;11.27;52.46
47280;BME280;34064;44.942;0.008;2023-03-21T00:51:39;99089.47;;;11.20;52.71
47280;BME280;34064;44.942;0.008;2023-03-21T00:54:05;99081.00;;;11.15;52.81
47280;BME280;34064;44.942;0.008;2023-03-21T00:56:33;99091.88;;;11.12;52.75
47280;BME280;34064;44.942;0.008;2023-03-21T00:58:59;99093.91;;;11.08;52.32
47280;BME280;34064;44.942;0.008;2023-03-21T01:01:25;99099.44;;;11.05;52.70
47280;BME280;34064;44.942;0.008;2023-03-21T01:03:57;99104.13;;;11.02;52.99
47280;BME280;34064;44.942;0.008;2023-03-21T01:06:28;99100.78;;;11.00;52.54
47280;BME280;34064;44.942;0.008;2023-03-21T01:08:54;99101.81;;;10.97;52.71
47280;BME280;34064;44.942;0.008;2023-03-21T01:11:24;99099.63;;;10.91;52.86
47280;BME280;34064;44.942;0.008;2023-03-21T01:13:52;99104.81;;;10.92;52.79
47280;BME280;34064;44.942;0.008;2023-03-21T01:16:19;99097.59;;;10.95;52.79
47280;BME280;34064;44.942;0.008;2023-03-21T01:18:45;99089.88;;;11.03;52.71
47280;BME280;34064;44.942;0.008;2023-03-21T01:21:13;99084.84;;;11.11;52.42
47280;BME280;34064;44.942;0.008;2023-03-21T01:23:41;99079.53;;;11.11;52.54
47280;BME280;34064;44.942;0.008;2023-03-21T01:26:09;99075.91;;;11.12;52.17
47280;BME280;34064;44.942;0.008;2023-03-21T01:28:37;99070.59;;;11.12;52.77
47280;BME280;34064;44.942;0.008;2023-03-21T01:31:05;99074.47;;;11.08;52.66
47280;BME280;34064;44.942;0.008;2023-03-21T01:33:32;99076.50;;;11.04;52.74
47280;BME280;34064;44.942;0.008;2023-03-21T01:35:59;99084.06;;;10.98;53.11
47280;BME280;34064;44.942;0.008;2023-03-21T01:38:26;99083.88;;;10.88;53.21
47280;BME280;34064;44.942;0.008;2023-03-21T01:40:53;99078.41;;;10.78;53.29
47280;BME280;34064;44.942;0.008;2023-03-21T01:43:30;99093.13;;;10.71;53.23
47280;BME280;34064;44.942;0.008;2023-03-21T01:49:03;99091.34;;;10.58;53.41
47280;BME280;34064;44.942;0.008;2023-03-21T01:51:34;99085.06;;;10.59;52.96
47280;BME280;34064;44.942;0.008;2023-03-21T01:54:02;99086.78;;;10.60;52.69
47280;BME280;34064;44.942;0.008;2023-03-21T01:56:33;99085.81;;;10.61;52.95
47280;BME280;34064;44.942;0.008;2023-03-21T01:59:28;99084.84;;;10.63;52.80
47280;BME280;34064;44.942;0.008;2023-03-21T02:02:02;99072.28;;;10.65;52.78
47280;BME280;34064;44.942;0.008;2023-03-21T02:04:34;99068.69;;;10.66;53.00
47280;BME280;34064;44.942;0.008;2023-03-21T02:07:14;99068.69;;;10.66;53.00
47280;BME280;34064;44.942;0.008;2023-03-21T02:09:46;99068.78;;;10.64;53.28
47280;BME280;34064;44.942;0.008;2023-03-21T02:12:14;99075.41;;;10.58;54.11
47280;BME280;34064;44.942;0.008;2023-03-21T02:14:41;99067.66;;;10.55;53.43
47280;BME280;34064;44.942;0.008;2023-03-21T02:23:12;99081.09;;;10.41;53.45
47280;BME280;34064;44.942;0.008;2023-03-21T02:28:33;99073.31;;;10.38;53.66
47280;BME280;34064;44.942;0.008;2023-03-21T02:45:31;99078.97;;;10.20;54.29
47280;BME280;34064;44.942;0.008;2023-03-21T02:48:06;99077.91;;;10.10;53.82
47280;BME280;34064;44.942;0.008;2023-03-21T02:50:42;99078.09;;;10.07;53.73
47280;BME280;34064;44.942;0.008;2023-03-21T02:53:13;99070.38;;;10.04;53.76
47280;BME280;34064;44.942;0.008;2023-03-21T02:55:41;99072.50;;;9.98;54.22
47280;BME280;34064;44.942;0.008;2023-03-21T02:58:14;99072.50;;;9.98;53.94
47280;BME280;34064;44.942;0.008;2023-03-21T03:00:42;99062.00;;;9.97;54.12
47280;BME280;34064;44.942;0.008;2023-03-21T03:03:13;99058.50;;;9.96;54.02
47280;BME280;34064;44.942;0.008;2023-03-21T03:05:49;99062.94;;;9.96;54.54
47280;BME280;34064;44.942;0.008;2023-03-21T03:08:34;99056.06;;;9.93;54.25
47280;BME280;34064;44.942;0.008;2023-03-21T03:11:25;99060.31;;;9.83;54.41
47280;BME280;34064;44.942;0.008;2023-03-21T03:19:28;99058.50;;;9.71;54.06
47280;BME280;34064;44.942;0.008;2023-03-21T03:22:13;99064.22;;;9.64;54.42
47280;BME280;34064;44.942;0.008;2023-03-21T03:24:51;99067.41;;;9.57;54.59
47280;BME280;34064;44.942;0.008;2023-03-21T03:27:28;99063.91;;;9.56;54.38
47280;BME280;34064;44.942;0.008;2023-03-21T03:29:59;99061.47;;;9.53;54.26
47280;BME280;34064;44.942;0.008;2023-03-21T03:32:41;99067.72;;;9.52;54.58
47280;BME280;34064;44.942;0.008;2023-03-21T03:35:12;99060.00;;;9.49;54.49
47280;BME280;34064;44.942;0.008;2023-03-21T03:37:41;99055.63;;;9.48;54.51
47280;BME280;34064;44.942;0.008;2023-03-21T03:40:15;99056.47;;;9.48;54.25
47280;BME280;34064;44.942;0.008;2023-03-21T03:42:48;99061.66;;;9.50;54.37
47280;BME280;34064;44.942;0.008;2023-03-21T03:45:17;99070.47;;;9.50;54.57
47280;BME280;34064;44.942;0.008;2023-03-21T03:48:06;99078.53;;;9.49;54.90
47280;BME280;34064;44.942;0.008;2023-03-21T03:50:56;99080.66;;;9.44;54.69
47280;BME280;34064;44.942;0.008;2023-03-21T03:53:57;99076.53;;;9.40;54.72
47280;BME280;34064;44.942;0.008;2023-03-21T03:56:26;99075.53;;;9.41;54.49
47280;BME280;34064;44.942;0.008;2023-03-21T03:58:53;99073.88;;;9.40;54.66
47280;BME280;34064;44.942;0.008;2023-03-21T04:01:19;99073.88;;;9.40;54.48
47280;BME280;34064;44.942;0.008;2023-03-21T04:03:47;99084.47;;;9.40;54.58
47280;BME280;34064;44.942;0.008;2023-03-21T04:06:17;99082.31;;;9.32;55.20
47280;BME280;34064;44.942;0.008;2023-03-21T04:08:44;99075.22;;;9.32;54.87
47280;BME280;34064;44.942;0.008;2023-03-21T04:11:13;99087.81;;;9.29;55.11
47280;BME280;34064;44.942;0.008;2023-03-21T04:13:43;99090.41;;;9.30;55.08
47280;BME280;34064;44.942;0.008;2023-03-21T04:16:10;99088.47;;;9.32;55.01
47280;BME280;34064;44.942;0.008;2023-03-21T04:18:37;99081.16;;;9.36;55.23
47280;BME280;34064;44.942;0.008;2023-03-21T04:21:09;99089.34;;;9.33;56.13
47280;BME280;34064;44.942;0.008;2023-03-21T04:23:38;99097.38;;;9.31;56.24
47280;BME280;34064;44.942;0.008;2023-03-21T04:26:05;99101.94;;;9.29;56.17
47280;BME280;34064;44.942;0.008;2023-03-21T04:28:32;99092.94;;;9.32;55.79
47280;BME280;34064;44.942;0.008;2023-03-21T04:31:01;99094.41;;;9.36;55.19
47280;BME280;34064;44.942;0.008;2023-03-21T04:33:29;99088.06;;;9.39;55.58
47280;BME280;34064;44.942;0.008;2023-03-21T04:35:56;99086.06;;;9.42;55.43
47280;BME280;34064;44.942;0.008;2023-03-21T04:38:25;99086.69;;;9.46;55.63
47280;BME280;34064;44.942;0.008;2023-03-21T04:40:55;99085.94;;;9.44;56.62
47280;BME280;34064;44.942;0.008;2023-03-21T04:43:22;99090.41;;;9.43;56.81
47280;BME280;34064;44.942;0.008;2023-03-21T04:45:49;99096.56;;;9.44;56.46
47280;BME280;34064;44.942;0.008;2023-03-21T04:48:16;99100.16;;;9.43;55.99
47280;BME280;34064;44.942;0.008;2023-03-21T04:50:45;99094.97;;;9.41;55.85
47280;BME280;34064;44.942;0.008;2023-03-21T04:53:11;99099.63;;;9.38;56.18
47280;BME280;34064;44.942;0.008;2023-03-21T04:55:38;99095.28;;;9.36;56.33
47280;BME280;34064;44.942;0.008;2023-03-21T04:58:04;99096.22;;;9.35;56.15
47280;BME280;34064;44.942;0.008;2023-03-21T05:00:31;99099.72;;;9.36;55.99
47280;BME280;34064;44.942;0.008;2023-03-21T05:03:05;99100.69;;;9.35;56.02
47280;BME280;34064;44.942;0.008;2023-03-21T05:05:36;99103.34;;;9.35;56.25
47280;BME280;34064;44.942;0.008;2023-03-21T05:08:03;99106.00;;;9.35;56.11
47280;BME280;34064;44.942;0.008;2023-03-21T05:10:29;99105.13;;;9.34;56.42
47280;BME280;34064;44.942;0.008;2023-03-21T05:12:56;99107.78;;;9.34;56.00
47280;BME280;34064;44.942;0.008;2023-03-21T05:15:22;99104.38;;;9.32;56.11
47280;BME280;34064;44.942;0.008;2023-03-21T05:17:49;99107.03;;;9.32;56.52
47280;BME280;34064;44.942;0.008;2023-03-21T05:20:15;99101.94;;;9.29;56.85
47280;BME280;34064;44.942;0.008;2023-03-21T05:22:43;99102.66;;;9.31;56.34
47280;BME280;34064;44.942;0.008;2023-03-21T05:25:11;99103.72;;;9.29;56.62
47280;BME280;34064;44.942;0.008;2023-03-21T05:27:38;99109.91;;;9.29;56.21
47280;BME280;34064;44.942;0.008;2023-03-21T05:30:16;99113.50;;;9.28;56.25
47280;BME280;34064;44.942;0.008;2023-03-21T05:32:42;99109.03;;;9.29;56.08
47280;BME280;34064;44.942;0.008;2023-03-21T05:35:09;99106.31;;;9.30;56.55
47280;BME280;34064;44.942;0.008;2023-03-21T05:37:36;99104.59;;;9.29;56.83
47280;BME280;34064;44.942;0.008;2023-03-21T05:40:04;99099.28;;;9.29;56.72
47280;BME280;34064;44.942;0.008;2023-03-21T05:42:32;99106.50;;;9.27;57.02
47280;BME280;34064;44.942;0.008;2023-03-21T05:44:59;99102.25;;;9.25;57.11
47280;BME280;34064;44.942;0.008;2023-03-21T05:47:27;99105.75;;;9.25;56.74
47280;BME280;34064;44.942;0.008;2023-03-21T05:49:54;99103.19;;;9.24;56.57
47280;BME280;34064;44.942;0.008;2023-03-21T05:52:22;99109.53;;;9.21;56.79
47280;BME280;34064;44.942;0.008;2023-03-21T05:54:49;99109.53;;;9.21;56.83
47280;BME280;34064;44.942;0.008;2023-03-21T05:57:17;99112.19;;;9.21;56.70
47280;BME280;34064;44.942;0.008;2023-03-21T05:59:45;99118.75;;;9.15;57.06
47280;BME280;34064;44.942;0.008;2023-03-21T06:02:13;99123.63;;;9.09;57.35
47280;BME280;34064;44.942;0.008;2023-03-21T06:04:40;99130.03;;;9.04;57.18
47280;BME280;34064;44.942;0.008;2023-03-21T06:07:07;99123.03;;;9.03;57.08
47280;BME280;34064;44.942;0.008;2023-03-21T06:09:35;99129.28;;;9.02;57.43
47280;BME280;34064;44.942;0.008;2023-03-21T06:12:02;99125.69;;;9.03;57.65
47280;BME280;34064;44.942;0.008;2023-03-21T06:14:30;99127.22;;;9.08;57.29
47280;BME280;34064;44.942;0.008;2023-03-21T06:16:58;99131.03;;;9.16;57.75
47280;BME280;34064;44.942;0.008;2023-03-21T06:19:25;99127.91;;;9.24;57.26
47280;BME280;34064;44.942;0.008;2023-03-21T06:21:52;99143.59;;;9.27;57.36
47280;BME280;34064;44.942;0.008;2023-03-21T06:24:21;99146.38;;;9.26;57.90
47280;BME280;34064;44.942;0.008;2023-03-21T06:26:49;99147.00;;;9.29;57.11
47280;BME280;34064;44.942;0.008;2023-03-21T06:29:16;99144.13;;;9.32;57.13
47280;BME280;34064;44.942;0.008;2023-03-21T06:31:44;99137.69;;;9.36;57.61
47280;BME280;34064;44.942;0.008;2023-03-21T06:34:11;99144.28;;;9.44;56.97
47280;BME280;34064;44.942;0.008;2023-03-21T06:36:39;99143.78;;;9.51;56.92
47280;BME280;34064;44.942;0.008;2023-03-21T06:39:06;99137.09;;;9.59;56.94
47280;BME280;34064;44.942;0.008;2023-03-21T06:41:33;99142.84;;;9.65;56.62
47280;BME280;34064;44.942;0.008;2023-03-21T06:44:00;99147.75;;;9.72;57.70
47280;BME280;34064;44.942;0.008;2023-03-21T06:46:26;99139.47;;;9.76;57.40
47280;BME280;34064;44.942;0.008;2023-03-21T06:48:53;99138.19;;;9.82;57.25
47280;BME280;34064;44.942;0.008;2023-03-21T06:51:19;99121.84;;;9.88;57.40
47280;BME280;34064;44.942;0.008;2023-03-21T06:53:45;99128.47;;;9.95;57.33
47280;BME280;34064;44.942;0.008;2023-03-21T06:56:13;99124.63;;;9.99;57.45
47280;BME280;34064;44.942;0.008;2023-03-21T06:58:40;99122.50;;;10.05;57.47
47280;BME280;34064;44.942;0.008;2023-03-21T07:01:07;99123.03;;;10.10;57.25
47280;BME280;34064;44.942;0.008;2023-03-21T07:03:34;99129.72;;;10.15;57.29
47280;BME280;34064;44.942;0.008;2023-03-21T07:06:06;99128.88;;;10.15;57.65
47280;BME280;34064;44.942;0.008;2023-03-21T07:08:34;99124.28;;;10.17;57.80
47280;BME280;34064;44.942;0.008;2023-03-21T07:11:02;99122.28;;;10.21;57.66
47280;BME280;34064;44.942;0.008;2023-03-21T07:13:28;99121.22;;;10.23;57.98
47280;BME280;34064;44.942;0.008;2023-03-21T07:15:55;99129.72;;;10.28;57.75
47280;BME280;34064;44.942;0.008;2023-03-21T07:18:21;99113.56;;;10.32;57.78
47280;BME280;34064;44.942;0.008;2023-03-21T07:20:49;99118.47;;;10.38;57.88
47280;BME280;34064;44.942;0.008;2023-03-21T07:23:17;99113.69;;;10.43;57.91
47280;BME280;34064;44.942;0.008;2023-03-21T07:25:45;99112.50;;;10.47;57.67
47280;BME280;34064;44.942;0.008;2023-03-21T07:28:12;99106.97;;;10.50;57.61
47280;BME280;34064;44.942;0.008;2023-03-21T07:30:38;99101.22;;;10.56;57.51
47280;BME280;34064;44.942;0.008;2023-03-21T07:33:05;99102.91;;;10.57;57.92
47280;BME280;34064;44.942;0.008;2023-03-21T07:35:32;99101.00;;;10.59;57.92
47280;BME280;34064;44.942;0.008;2023-03-21T07:37:59;99104.28;;;10.63;57.97
47280;BME280;34064;44.942;0.008;2023-03-21T07:40:25;99102.03;;;10.70;57.71
47280;BME280;34064;44.942;0.008;2023-03-21T07:42:51;99101.81;;;10.73;57.92
47280;BME280;34064;44.942;0.008;2023-03-21T07:45:18;99105.19;;;10.75;57.93
47280;BME280;34064;44.942;0.008;2023-03-21T07:47:50;99109.56;;;10.76;58.08
47280;BME280;34064;44.942;0.008;2023-03-21T07:50:17;99112.84;;;10.80;57.93
47280;BME280;34064;44.942;0.008;2023-03-21T07:52:44;99122.19;;;10.85;58.17
47280;BME280;34064;44.942;0.008;2023-03-21T07:55:11;99122.59;;;10.92;58.04
47280;BME280;34064;44.942;0.008;2023-03-21T07:57:37;99119.38;;;11.00;57.69
47280;BME280;34064;44.942;0.008;2023-03-21T08:00:04;99116.03;;;11.09;57.85
47280;BME280;34064;44.942;0.008;2023-03-21T08:02:32;99119.94;;;11.16;57.75
47280;BME280;34064;44.942;0.008;2023-03-21T08:04:58;99120.44;;;11.21;57.84
47280;BME280;34064;44.942;0.008;2023-03-21T08:07:25;99122.66;;;11.28;57.80
47280;BME280;34064;44.942;0.008;2023-03-21T08:09:52;99119.41;;;11.35;57.99
47280;BME280;34064;44.942;0.008;2023-03-21T08:12:19;99125.97;;;11.43;57.88
47280;BME280;34064;44.942;0.008;2023-03-21T08:14:45;99116.31;;;11.53;57.72
47280;BME280;34064;44.942;0.008;2023-03-21T08:17:12;99114.56;;;11.65;57.78
47280;BME280;34064;44.942;0.008;2023-03-21T08:19:38;99108.28;;;11.77;57.72
47280;BME280;34064;44.942;0.008;2023-03-21T08:22:05;99107.47;;;11.88;57.70
47280;BME280;34064;44.942;0.008;2023-03-21T08:24:31;99099.41;;;12.01;57.48
47280;BME280;34064;44.942;0.008;2023-03-21T08:27:00;99093.34;;;12.10;57.41
47280;BME280;34064;44.942;0.008;2023-03-21T08:29:26;99097.09;;;12.19;57.25
47280;BME280;34064;44.942;0.008;2023-03-21T08:31:53;99098.81;;;12.31;57.18
47280;BME280;34064;44.942;0.008;2023-03-21T08:34:19;99092.75;;;12.41;56.97
47280;BME280;34064;44.942;0.008;2023-03-21T08:36:48;99082.69;;;12.56;57.04
47280;BME280;34064;44.942;0.008;2023-03-21T08:39:14;99073.56;;;12.70;57.17
47280;BME280;34064;44.942;0.008;2023-03-21T08:41:40;99069.41;;;12.88;57.02
47280;BME280;34064;44.942;0.008;2023-03-21T08:44:07;99070.53;;;13.07;56.75
47280;BME280;34064;44.942;0.008;2023-03-21T08:46:34;99059.78;;;13.30;56.55
47280;BME280;34064;44.942;0.008;2023-03-21T08:49:00;99058.66;;;13.44;56.61
47280;BME280;34064;44.942;0.008;2023-03-21T08:51:27;99045.44;;;13.63;56.20
47280;BME280;34064;44.942;0.008;2023-03-21T08:53:53;99046.34;;;13.73;56.32
47280;BME280;34064;44.942;0.008;2023-03-21T08:56:19;99037.81;;;13.80;56.31
47280;BME280;34064;44.942;0.008;2023-03-21T08:58:46;99043.31;;;13.88;56.51
47280;BME280;34064;44.942;0.008;2023-03-21T09:01:12;99038.88;;;13.98;56.22
47280;BME280;34064;44.942;0.008;2023-03-21T09:03:41;99038.31;;;14.04;56.09
47280;BME280;34064;44.942;0.008;2023-03-21T09:06:08;99033.03;;;14.14;56.10
47280;BME280;34064;44.942;0.008;2023-03-21T09:08:37;99034.50;;;14.28;56.11
47280;BME280;34064;44.942;0.008;2023-03-21T09:11:04;99026.78;;;14.35;55.99
47280;BME280;34064;44.942;0.008;2023-03-21T09:13:30;99022.69;;;14.41;55.75
47280;BME280;34064;44.942;0.008;2023-03-21T09:15:57;99021.44;;;14.45;55.86
47280;BME280;34064;44.942;0.008;2023-03-21T09:18:26;99025.41;;;14.50;55.80
47280;BME280;34064;44.942;0.008;2023-03-21T09:21:14;99022.06;;;14.58;55.88
47280;BME280;34064;44.942;0.008;2023-03-21T09:23:42;99012.38;;;14.67;55.92
47280;BME280;34064;44.942;0.008;2023-03-21T09:26:10;99020.69;;;14.74;55.98
47280;BME280;34064;44.942;0.008;2023-03-21T09:28:37;99013.78;;;14.81;55.77
47280;BME280;34064;44.942;0.008;2023-03-21T09:31:04;99004.22;;;14.88;55.89
47280;BME280;34064;44.942;0.008;2023-03-21T09:33:33;99002.84;;;15.04;55.83
47280;BME280;34064;44.942;0.008;2023-03-21T09:36:00;98989.59;;;15.12;55.87
47280;BME280;34064;44.942;0.008;2023-03-21T09:38:27;98994.63;;;15.25;55.76
47280;BME280;34064;44.942;0.008;2023-03-21T09:46:40;98980.75;;;15.59;55.12
47280;BME280;34064;44.942;0.008;2023-03-21T09:49:27;98974.22;;;15.71;54.96
47280;BME280;34064;44.942;0.008;2023-03-21T09:52:03;98967.16;;;15.80;54.78
47280;BME280;34064;44.942;0.008;2023-03-21T09:54:42;98963.63;;;15.89;54.99
47280;BME280;34064;44.942;0.008;2023-03-21T09:57:36;98961.84;;;16.08;54.70
47280;BME280;34064;44.942;0.008;2023-03-21T10:00:12;98956.84;;;16.23;54.26
47280;BME280;34064;44.942;0.008;2023-03-21T10:02:49;98966.78;;;16.31;53.88
47280;BME280;34064;44.942;0.008;2023-03-21T10:05:20;98963.81;;;16.34;53.89
47280;BME280;34064;44.942;0.008;2023-03-21T10:10:26;98967.97;;;16.46;53.48
47280;BME280;34064;44.942;0.008;2023-03-21T10:12:55;98950.44;;;16.52;53.06
47280;BME280;34064;44.942;0.008;2023-03-21T10:15:24;98946.91;;;16.51;52.71
47280;BME280;34064;44.942;0.008;2023-03-21T10:18:04;98946.44;;;16.56;53.17
47280;BME280;34064;44.942;0.008;2023-03-21T10:20:35;98945.97;;;16.61;52.84
47280;BME280;34064;44.942;0.008;2023-03-21T10:23:10;98952.03;;;16.63;52.67
47280;BME280;34064;44.942;0.008;2023-03-21T10:25:58;98954.44;;;16.66;52.73
47280;BME280;34064;44.942;0.008;2023-03-21T10:28:29;98964.84;;;16.69;52.53
47280;BME280;34064;44.942;0.008;2023-03-21T10:31:01;98961.84;;;16.72;52.26
47280;BME280;34064;44.942;0.008;2023-03-21T10:33:36;98964.59;;;16.80;52.43
47280;BME280;34064;44.942;0.008;2023-03-21T10:36:15;98968.69;;;16.84;52.14
47280;BME280;34064;44.942;0.008;2023-03-21T10:38:56;98965.38;;;16.91;52.09
47280;BME280;34064;44.942;0.008;2023-03-21T10:41:25;98966.47;;;16.98;51.81
47280;BME280;34064;44.942;0.008;2023-03-21T10:44:28;98959.88;;;17.10;51.84
47280;BME280;34064;44.942;0.008;2023-03-21T10:46:57;98957.69;;;17.32;50.29
47280;BME280;34064;44.942;0.008;2023-03-21T10:49:24;98946.81;;;17.42;49.69
47280;BME280;34064;44.942;0.008;2023-03-21T10:51:57;98948.22;;;17.46;48.76
47280;BME280;34064;44.942;0.008;2023-03-21T10:54:32;98945.03;;;17.51;49.25
47280;BME280;34064;44.942;0.008;2023-03-21T10:57:03;98953.44;;;17.56;49.70
47280;BME280;34064;44.942;0.008;2023-03-21T10:59:50;98954.88;;;17.68;49.47
47280;BME280;34064;44.942;0.008;2023-03-21T11:02:23;98950.72;;;17.74;49.85
47280;BME280;34064;44.942;0.008;2023-03-21T11:04:53;98959.97;;;17.80;49.55
47280;BME280;34064;44.942;0.008;2023-03-21T11:07:20;98950.06;;;17.80;49.79
47280;BME280;34064;44.942;0.008;2023-03-21T11:09:56;98946.69;;;17.78;49.78
47280;BME280;34064;44.942;0.008;2023-03-21T11:12:36;98954.91;;;17.76;49.82
47280;BME280;34064;44.942;0.008;2023-03-21T11:15:39;98956.59;;;17.77;49.92
47280;BME280;34064;44.942;0.008;2023-03-21T11:18:25;98956.44;;;17.79;49.68
47280;BME280;34064;44.942;0.008;2023-03-21T11:21:06;98953.44;;;17.82;49.55
47280;BME280;34064;44.942;0.008;2023-03-21T11:23:36;98953.47;;;17.90;49.23
47280;BME280;34064;44.942;0.008;2023-03-21T11:26:09;98947.91;;;17.92;49.17
47280;BME280;34064;44.942;0.008;2023-03-21T11:28:39;98944.91;;;17.95;49.32
47280;BME280;34064;44.942;0.008;2023-03-21T11:31:06;98942.97;;;18.05;49.45
47280;BME280;34064;44.942;0.008;2023-03-21T11:33:51;98942.38;;;18.28;49.34
47280;BME280;34064;44.942;0.008;2023-03-21T11:39:13;98917.06;;;18.72;48.83
47280;BME280;34064;44.942;0.008;2023-03-21T11:41:40;98911.22;;;18.93;48.17
47280;BME280;34064;44.942;0.008;2023-03-21T11:44:27;98894.88;;;19.11;48.01
47280;BME280;34064;44.942;0.008;2023-03-21T11:46:54;98882.19;;;19.37;48.38
47280;BME280;34064;44.942;0.008;2023-03-21T11:49:22;98868.47;;;19.63;48.29
47280;BME280;34064;44.942;0.008;2023-03-21T11:52:16;98861.81;;;19.90;47.16
47280;BME280;34064;44.942;0.008;2023-03-21T12:03:28;98845.19;;;20.33;46.21
47280;BME280;34064;44.942;0.008;2023-03-21T12:06:01;98847.00;;;20.41;46.11
47280;BME280;34064;44.942;0.008;2023-03-21T12:11:40;98842.53;;;20.71;45.28
47280;BME280;34064;44.942;0.008;2023-03-21T12:20:26;98822.25;;;20.99;45.44
47280;BME280;34064;44.942;0.008;2023-03-21T12:22:57;98816.84;;;20.99;45.50
47280;BME280;34064;44.942;0.008;2023-03-21T12:25:31;98812.63;;;21.11;45.44
47280;BME280;34064;44.942;0.008;2023-03-21T12:28:10;98808.19;;;21.33;45.41
47280;BME280;34064;44.942;0.008;2023-03-21T12:36:23;98800.09;;;21.33;45.22
47280;BME280;34064;44.942;0.008;2023-03-21T12:41:49;98793.53;;;21.58;45.43
47280;BME280;34064;44.942;0.008;2023-03-21T12:44:24;98780.84;;;21.73;45.18
47280;BME280;34064;44.942;0.008;2023-03-21T12:47:01;98769.78;;;21.90;45.28
47280;BME280;34064;44.942;0.008;2023-03-21T12:49:45;98762.09;;;21.87;44.60
47280;BME280;34064;44.942;0.008;2023-03-21T12:52:55;98771.84;;;21.66;44.97
47280;BME280;34064;44.942;0.008;2023-03-21T12:55:34;98788.72;;;21.38;44.90
47280;BME280;34064;44.942;0.008;2023-03-21T12:58:15;98803.91;;;21.09;45.78
47280;BME280;34064;44.942;0.008;2023-03-21T13:00:44;98805.03;;;21.00;46.42
47280;BME280;34064;44.942;0.008;2023-03-21T13:06:08;98796.63;;;21.10;46.96
47280;BME280;34064;44.942;0.008;2023-03-21T13:08:49;98776.56;;;21.49;46.30
47280;BME280;34064;44.942;0.008;2023-03-21T13:11:22;98770.81;;;21.67;46.10
47280;BME280;34064;44.942;0.008;2023-03-21T13:14:16;98772.28;;;21.55;46.24
47280;BME280;34064;44.942;0.008;2023-03-21T13:17:16;98763.78;;;21.73;45.89
47280;BME280;34064;44.942;0.008;2023-03-21T13:19:57;98757.69;;;21.86;45.94
47280;BME280;34064;44.942;0.008;2023-03-21T13:22:30;98762.13;;;21.93;45.13
47280;BME280;34064;44.942;0.008;2023-03-21T13:25:21;98765.28;;;21.75;45.73
47280;BME280;34064;44.942;0.008;2023-03-21T13:28:00;98776.78;;;21.47;46.11
47280;BME280;34064;44.942;0.008;2023-03-21T13:30:29;98784.69;;;21.34;46.67
47280;BME280;34064;44.942;0.008;2023-03-21T13:33:15;98786.38;;;21.35;47.05
47280;BME280;34064;44.942;0.008;2023-03-21T13:35:57;98786.19;;;21.37;46.71
47280;BME280;34064;44.942;0.008;2023-03-21T13:38:27;98784.03;;;21.32;46.39
47280;BME280;34064;44.942;0.008;2023-03-21T13:41:18;98798.09;;;21.12;47.31
47280;BME280;34064;44.942;0.008;2023-03-21T13:49:00;98811.97;;;20.79;47.53
47280;BME280;34064;44.942;0.008;2023-03-21T13:59:17;98754.09;;;21.63;45.05
47280;BME280;34064;44.942;0.008;2023-03-21T14:04:44;98758.84;;;21.76;45.33
47280;BME280;34064;44.942;0.008;2023-03-21T14:07:15;98747.72;;;21.86;44.93
47280;BME280;34064;44.942;0.008;2023-03-21T14:09:53;98741.34;;;21.94;44.90
47280;BME280;34064;44.942;0.008;2023-03-21T14:12:33;98744.94;;;21.79;44.77
47280;BME280;34064;44.942;0.008;2023-03-21T14:15:20;98743.66;;;21.97;44.77
47280;BME280;34064;44.942;0.008;2023-03-21T14:17:56;98731.16;;;22.18;44.87
47280;BME280;34064;44.942;0.008;2023-03-21T14:20:29;98714.72;;;22.41;44.78
47280;BME280;34064;44.942;0.008;2023-03-21T14:22:56;98721.00;;;22.41;44.01
47280;BME280;34064;44.942;0.008;2023-03-21T14:25:25;98717.03;;;22.44;43.84
47280;BME280;34064;44.942;0.008;2023-03-21T14:28:02;98721.09;;;22.33;43.77
47280;BME280;34064;44.942;0.008;2023-03-21T14:30:33;98710.88;;;22.57;43.68
47280;BME280;34064;44.942;0.008;2023-03-21T14:33:24;98703.03;;;22.62;42.63
47280;BME280;34064;44.942;0.008;2023-03-21T14:35:54;98699.31;;;22.70;41.98
47280;BME280;34064;44.942;0.008;2023-03-21T14:38:24;98706.44;;;22.42;42.63
47280;BME280;34064;44.942;0.008;2023-03-21T14:40:55;98706.88;;;22.24;43.10
47280;BME280;34064;44.942;0.008;2023-03-21T14:43:26;98707.81;;;22.10;43.23
47280;BME280;34064;44.942;0.008;2023-03-21T14:45:55;98717.47;;;21.97;43.33
47280;BME280;34064;44.942;0.008;2023-03-21T14:48:29;98723.13;;;21.81;43.68
47280;BME280;34064;44.942;0.008;2023-03-21T14:51:09;98735.84;;;21.65;43.99
47280;BME280;34064;44.942;0.008;2023-03-21T14:53:41;98731.09;;;21.53;44.15